createdAt,value
2019-01-26T00:00:27.705Z,0.00
2019-01-26T00:01:27.665Z,0.00
2019-01-26T00:02:27.646Z,0.00
2019-01-26T00:03:27.587Z,0.00
2019-01-26T00:04:27.565Z,0.00
2019-01-26T00:05:27.541Z,0.00
2019-01-26T00:06:27.475Z,0.00
2019-01-26T00:07:27.441Z,0.00
2019-01-26T00:08:27.419Z,0.00
2019-01-26T00:09:27.376Z,0.00
2019-01-26T00:10:27.344Z,0.00
2019-01-26T00:11:27.295Z,0.00
2019-01-26T00:12:27.270Z,0.00
2019-01-26T00:13:27.216Z,0.00
2019-01-26T00:14:27.185Z,0.00
2019-01-26T00:15:27.137Z,0.00
2019-01-26T00:16:27.101Z,0.00
2019-01-26T00:17:27.066Z,0.00
2019-01-26T00:18:27.030Z,0.00
2019-01-26T00:19:27.006Z,0.00
2019-01-26T00:20:26.955Z,0.00
2019-01-26T00:21:26.919Z,0.00
2019-01-26T00:22:26.890Z,0.00
2019-01-26T00:23:26.849Z,0.00
2019-01-26T00:24:26.809Z,0.00
2019-01-26T00:25:26.769Z,0.00
2019-01-26T00:26:26.739Z,0.00
2019-01-26T00:27:26.700Z,0.00
2019-01-26T00:28:26.669Z,0.00
2019-01-26T00:29:26.630Z,0.00
2019-01-26T00:30:26.601Z,0.00
2019-01-26T00:31:26.542Z,0.00
2019-01-26T00:32:26.512Z,0.00
2019-01-26T00:33:26.489Z,0.00
2019-01-26T00:34:26.440Z,0.00
2019-01-26T00:35:26.394Z,0.00
2019-01-26T00:36:26.360Z,0.00
2019-01-26T00:37:26.328Z,0.00
2019-01-26T00:38:26.292Z,0.00
2019-01-26T00:39:26.245Z,0.00
2019-01-26T00:40:26.209Z,0.00
2019-01-26T00:41:26.170Z,0.00
2019-01-26T00:42:26.135Z,0.00
2019-01-26T00:43:26.096Z,0.00
2019-01-26T00:44:26.063Z,0.00
2019-01-26T00:45:26.023Z,0.00
2019-01-26T00:46:28.432Z,0.00
2019-01-26T00:47:25.955Z,0.00
2019-01-26T00:48:25.911Z,0.00
2019-01-26T00:49:25.874Z,0.00
2019-01-26T00:50:25.837Z,0.00
2019-01-26T00:51:25.805Z,0.00
2019-01-26T00:52:25.768Z,0.00
2019-01-26T00:53:25.725Z,0.00
2019-01-26T00:54:25.702Z,0.00
2019-01-26T00:55:25.656Z,0.00
2019-01-26T00:56:25.698Z,0.00
2019-01-26T00:57:25.573Z,0.00
2019-01-26T00:58:25.551Z,0.00
2019-01-26T00:59:25.509Z,0.00
2019-01-26T01:00:25.468Z,0.00
2019-01-26T01:01:25.428Z,0.00
2019-01-26T01:02:25.395Z,0.00
2019-01-26T01:03:25.386Z,0.00
2019-01-26T01:04:25.316Z,0.00
2019-01-26T01:05:25.291Z,0.00
2019-01-26T01:06:26.089Z,0.00
2019-01-26T01:07:25.202Z,0.00
2019-01-26T01:08:25.170Z,0.00
2019-01-26T01:09:25.132Z,0.00
2019-01-26T01:10:25.101Z,0.00
2019-01-26T01:11:25.078Z,0.00
2019-01-26T01:12:25.028Z,0.00
2019-01-26T01:13:24.993Z,0.00
2019-01-26T01:14:24.978Z,0.00
2019-01-26T01:15:24.926Z,0.00
2019-01-26T01:16:24.888Z,0.00
2019-01-26T01:17:24.855Z,0.00
2019-01-26T01:18:24.838Z,0.00
2019-01-26T01:19:24.804Z,0.00
2019-01-26T01:20:24.746Z,0.00
2019-01-26T01:21:24.723Z,0.00
2019-01-26T01:22:24.663Z,0.00
2019-01-26T01:23:24.620Z,0.00
2019-01-26T01:24:24.592Z,0.00
2019-01-26T01:25:24.560Z,0.00
2019-01-26T01:26:24.502Z,0.00
2019-01-26T01:27:24.464Z,0.00
2019-01-26T01:28:24.427Z,0.00
2019-01-26T01:29:24.387Z,0.00
2019-01-26T01:30:24.374Z,0.00
2019-01-26T01:31:24.341Z,0.00
2019-01-26T01:32:24.281Z,0.00
2019-01-26T01:33:24.263Z,0.00
2019-01-26T01:34:24.227Z,0.00
2019-01-26T01:35:24.176Z,0.00
2019-01-26T01:36:24.133Z,0.00
2019-01-26T01:37:24.098Z,0.00
2019-01-26T01:38:24.070Z,0.00
2019-01-26T01:39:24.083Z,0.00
2019-01-26T01:40:23.980Z,0.00
2019-01-26T01:41:23.946Z,0.00
2019-01-26T01:42:23.912Z,0.00
2019-01-26T01:43:23.870Z,0.00
2019-01-26T01:44:23.835Z,0.00
2019-01-26T01:45:23.817Z,0.00
2019-01-26T01:46:23.763Z,0.00
2019-01-26T01:47:23.766Z,0.00
2019-01-26T01:48:23.694Z,0.00
2019-01-26T01:49:23.654Z,0.00
2019-01-26T01:50:23.619Z,0.00
2019-01-26T01:51:23.586Z,0.00
2019-01-26T01:52:23.573Z,0.00
2019-01-26T01:53:23.528Z,0.00
2019-01-26T01:54:23.470Z,0.00
2019-01-26T01:55:23.430Z,0.00
2019-01-26T01:56:23.396Z,0.00
2019-01-26T01:57:23.363Z,0.00
2019-01-26T01:58:23.325Z,0.00
2019-01-26T01:59:23.305Z,0.00
2019-01-26T02:00:23.250Z,0.00
2019-01-26T02:01:23.215Z,0.00
2019-01-26T02:02:23.178Z,0.00
2019-01-26T02:03:23.134Z,0.00
2019-01-26T02:04:23.100Z,0.00
2019-01-26T02:05:23.063Z,0.00
2019-01-26T02:06:23.022Z,0.00
2019-01-26T02:07:22.989Z,0.00
2019-01-26T02:08:22.945Z,0.00
2019-01-26T02:09:22.922Z,0.00
2019-01-26T02:10:22.879Z,0.00
2019-01-26T02:11:22.839Z,0.00
2019-01-26T02:12:22.808Z,0.00
2019-01-26T02:13:22.769Z,0.00
2019-01-26T02:14:22.734Z,0.00
2019-01-26T02:15:22.694Z,0.00
2019-01-26T02:16:22.655Z,0.00
2019-01-26T02:17:22.645Z,0.00
2019-01-26T02:18:22.591Z,0.00
2019-01-26T02:19:22.546Z,0.00
2019-01-26T02:20:22.512Z,0.00
2019-01-26T02:21:22.472Z,0.00
2019-01-26T02:22:22.437Z,0.00
2019-01-26T02:23:22.398Z,0.00
2019-01-26T02:24:22.372Z,0.00
2019-01-26T02:25:22.325Z,0.00
2019-01-26T02:26:22.287Z,0.00
2019-01-26T02:27:22.250Z,0.00
2019-01-26T02:28:22.207Z,0.00
2019-01-26T02:29:22.175Z,0.00
2019-01-26T02:30:22.142Z,0.00
2019-01-26T02:31:22.125Z,0.00
2019-01-26T02:32:22.063Z,0.00
2019-01-26T02:33:22.048Z,0.00
2019-01-26T02:34:22.000Z,0.00
2019-01-26T02:35:21.965Z,0.00
2019-01-26T02:36:21.918Z,0.00
2019-01-26T02:37:21.890Z,0.00
2019-01-26T02:38:21.835Z,0.00
2019-01-26T02:39:21.797Z,0.00
2019-01-26T02:40:21.774Z,0.00
2019-01-26T02:41:21.736Z,0.00
2019-01-26T02:42:21.691Z,0.00
2019-01-26T02:43:21.659Z,0.00
2019-01-26T02:44:21.631Z,0.00
2019-01-26T02:45:21.580Z,0.00
2019-01-26T02:46:21.547Z,0.00
2019-01-26T02:47:21.516Z,0.00
2019-01-26T02:48:21.475Z,0.00
2019-01-26T02:49:21.442Z,0.00
2019-01-26T02:50:21.409Z,0.00
2019-01-26T02:51:21.356Z,0.00
2019-01-26T02:52:21.327Z,0.00
2019-01-26T02:53:21.288Z,0.00
2019-01-26T02:54:21.258Z,0.00
2019-01-26T02:55:21.207Z,0.00
2019-01-26T02:56:21.184Z,0.00
2019-01-26T02:57:21.138Z,0.00
2019-01-26T02:58:21.111Z,0.00
2019-01-26T02:59:21.067Z,0.00
2019-01-26T03:00:21.031Z,0.00
2019-01-26T03:01:20.987Z,0.00
2019-01-26T03:02:20.978Z,0.00
2019-01-26T03:03:20.926Z,0.00
2019-01-26T03:04:20.881Z,0.00
2019-01-26T03:05:20.853Z,0.00
2019-01-26T03:06:20.837Z,0.00
2019-01-26T03:07:20.773Z,0.00
2019-01-26T03:08:20.743Z,0.00
2019-01-26T03:09:20.708Z,0.00
2019-01-26T03:10:20.654Z,0.00
2019-01-26T03:11:20.619Z,0.00
2019-01-26T03:12:20.588Z,0.00
2019-01-26T03:13:20.551Z,0.00
2019-01-26T03:14:20.507Z,0.00
2019-01-26T03:15:20.473Z,0.00
2019-01-26T03:16:20.439Z,0.00
2019-01-26T03:17:20.500Z,0.00
2019-01-26T03:18:20.368Z,0.00
2019-01-26T03:19:20.343Z,0.00
2019-01-26T03:20:20.288Z,0.00
2019-01-26T03:21:20.260Z,0.00
2019-01-26T03:22:20.236Z,0.00
2019-01-26T03:23:20.178Z,0.00
2019-01-26T03:24:20.144Z,0.00
2019-01-26T03:25:20.105Z,0.00
2019-01-26T03:26:20.065Z,0.00
2019-01-26T03:27:20.049Z,0.00
2019-01-26T03:28:19.997Z,0.00
2019-01-26T03:29:19.956Z,0.00
2019-01-26T03:30:19.940Z,0.00
2019-01-26T03:31:19.887Z,0.00
2019-01-26T03:32:19.877Z,0.00
2019-01-26T03:33:19.830Z,0.00
2019-01-26T03:34:19.764Z,0.00
2019-01-26T03:35:19.745Z,0.00
2019-01-26T03:36:19.707Z,0.00
2019-01-26T03:37:19.703Z,0.00
2019-01-26T03:38:19.626Z,0.00
2019-01-26T03:39:19.615Z,0.00
2019-01-26T03:40:19.549Z,0.00
2019-01-26T03:41:19.635Z,0.00
2019-01-26T03:42:19.480Z,0.00
2019-01-26T03:43:19.456Z,0.00
2019-01-26T03:44:19.409Z,0.00
2019-01-26T03:45:19.381Z,0.00
2019-01-26T03:46:19.354Z,0.00
2019-01-26T03:47:19.306Z,0.00
2019-01-26T03:48:19.261Z,0.00
2019-01-26T03:49:19.221Z,0.00
2019-01-26T03:50:19.189Z,0.00
2019-01-26T03:51:19.160Z,0.00
2019-01-26T03:52:19.151Z,0.00
2019-01-26T03:53:19.097Z,0.00
2019-01-26T03:54:19.060Z,0.00
2019-01-26T03:55:19.011Z,0.00
2019-01-26T03:56:18.972Z,0.00
2019-01-26T03:57:20.258Z,0.00
2019-01-26T03:58:18.959Z,0.00
2019-01-26T03:59:18.890Z,0.00
2019-01-26T04:00:18.836Z,0.00
2019-01-26T04:01:18.780Z,0.00
2019-01-26T04:02:18.751Z,0.00
2019-01-26T04:03:18.741Z,0.00
2019-01-26T04:04:18.678Z,0.00
2019-01-26T04:05:18.648Z,0.00
2019-01-26T04:06:18.602Z,0.00
2019-01-26T04:07:18.562Z,0.00
2019-01-26T04:08:18.532Z,0.00
2019-01-26T04:09:18.570Z,0.00
2019-01-26T04:10:18.453Z,0.00
2019-01-26T04:11:18.420Z,0.00
2019-01-26T04:12:18.390Z,0.00
2019-01-26T04:13:18.342Z,0.00
2019-01-26T04:14:18.932Z,0.00
2019-01-26T04:15:18.267Z,0.00
2019-01-26T04:16:18.243Z,0.00
2019-01-26T04:17:22.007Z,0.00
2019-01-26T04:18:18.168Z,0.00
2019-01-26T04:19:18.147Z,0.00
2019-01-26T04:20:18.086Z,0.00
2019-01-26T04:21:18.048Z,0.00
2019-01-26T04:22:18.014Z,0.00
2019-01-26T04:23:17.978Z,0.00
2019-01-26T04:24:17.978Z,0.00
2019-01-26T04:25:17.909Z,0.00
2019-01-26T04:26:17.881Z,0.00
2019-01-26T04:27:17.841Z,0.00
2019-01-26T04:28:17.812Z,0.00
2019-01-26T04:29:17.784Z,0.00
2019-01-26T04:30:17.757Z,0.00
2019-01-26T04:31:17.697Z,0.00
2019-01-26T04:32:17.672Z,0.00
2019-01-26T04:33:17.618Z,0.00
2019-01-26T04:34:17.581Z,0.00
2019-01-26T04:35:17.563Z,0.00
2019-01-26T04:36:17.503Z,0.00
2019-01-26T04:37:17.460Z,0.00
2019-01-26T04:38:17.460Z,0.00
2019-01-26T04:39:17.403Z,0.00
2019-01-26T04:40:17.363Z,0.00
2019-01-26T04:41:17.337Z,0.00
2019-01-26T04:42:17.287Z,0.00
2019-01-26T04:43:17.253Z,0.00
2019-01-26T04:44:17.213Z,0.00
2019-01-26T04:45:17.174Z,0.00
2019-01-26T04:46:17.176Z,0.00
2019-01-26T04:47:17.118Z,0.00
2019-01-26T04:48:17.071Z,0.00
2019-01-26T04:49:17.035Z,0.00
2019-01-26T04:50:16.994Z,0.00
2019-01-26T04:51:16.984Z,0.00
2019-01-26T04:52:16.936Z,0.00
2019-01-26T04:53:16.889Z,0.00
2019-01-26T04:54:16.844Z,0.00
2019-01-26T04:55:16.861Z,0.00
2019-01-26T04:56:16.784Z,0.00
2019-01-26T04:57:16.749Z,0.00
2019-01-26T04:58:16.699Z,0.00
2019-01-26T04:59:16.659Z,0.00
2019-01-26T05:00:16.633Z,0.00
2019-01-26T05:01:16.593Z,0.00
2019-01-26T05:02:16.548Z,0.00
2019-01-26T05:03:16.536Z,0.00
2019-01-26T05:04:16.484Z,0.00
2019-01-26T05:05:16.454Z,0.00
2019-01-26T05:06:16.404Z,0.00
2019-01-26T05:07:16.374Z,0.00
2019-01-26T05:08:16.345Z,0.00
2019-01-26T05:09:16.305Z,0.00
2019-01-26T05:10:16.281Z,0.00
2019-01-26T05:11:16.238Z,0.00
2019-01-26T05:12:16.207Z,0.00
2019-01-26T05:13:16.161Z,0.00
2019-01-26T05:14:16.114Z,0.00
2019-01-26T05:15:16.078Z,0.00
2019-01-26T05:16:16.053Z,0.00
2019-01-26T05:17:16.021Z,0.00
2019-01-26T05:18:15.976Z,0.00
2019-01-26T05:19:15.945Z,0.00
2019-01-26T05:20:15.922Z,0.00
2019-01-26T05:21:15.866Z,0.00
2019-01-26T05:22:15.829Z,0.00
2019-01-26T05:23:15.794Z,0.00
2019-01-26T05:24:15.762Z,0.00
2019-01-26T05:25:15.740Z,0.00
2019-01-26T05:26:15.690Z,0.00
2019-01-26T05:27:15.666Z,0.00
2019-01-26T05:28:15.630Z,0.00
2019-01-26T05:29:15.571Z,0.00
2019-01-26T05:30:15.550Z,0.00
2019-01-26T05:31:15.495Z,0.00
2019-01-26T05:32:15.455Z,0.00
2019-01-26T05:33:15.420Z,0.00
2019-01-26T05:34:15.384Z,0.00
2019-01-26T05:35:15.380Z,0.00
2019-01-26T05:36:15.313Z,0.00
2019-01-26T05:37:15.281Z,0.00
2019-01-26T05:38:15.246Z,0.00
2019-01-26T05:39:15.203Z,0.00
2019-01-26T05:40:15.201Z,0.00
2019-01-26T05:41:15.140Z,0.00
2019-01-26T05:42:15.095Z,0.00
2019-01-26T05:43:15.068Z,0.00
2019-01-26T05:44:15.026Z,0.00
2019-01-26T05:45:14.983Z,0.00
2019-01-26T05:46:14.962Z,0.00
2019-01-26T05:47:14.913Z,0.00
2019-01-26T05:48:14.876Z,0.00
2019-01-26T05:49:14.860Z,0.00
2019-01-26T05:50:14.807Z,0.00
2019-01-26T05:51:14.802Z,0.00
2019-01-26T05:52:14.725Z,0.00
2019-01-26T05:53:14.721Z,0.00
2019-01-26T05:54:14.680Z,0.00
2019-01-26T05:55:14.641Z,0.00
2019-01-26T05:56:14.608Z,0.00
2019-01-26T05:57:14.550Z,0.00
2019-01-26T05:58:14.506Z,0.00
2019-01-26T05:59:14.486Z,0.00
2019-01-26T06:00:14.436Z,0.00
2019-01-26T06:01:14.396Z,0.00
2019-01-26T06:02:14.386Z,0.00
2019-01-26T06:03:14.356Z,0.00
2019-01-26T06:04:14.292Z,0.00
2019-01-26T06:05:14.253Z,0.00
2019-01-26T06:06:14.221Z,0.00
2019-01-26T06:07:14.183Z,0.00
2019-01-26T06:08:14.148Z,0.00
2019-01-26T06:09:14.119Z,0.00
2019-01-26T06:10:14.093Z,0.00
2019-01-26T06:11:14.041Z,0.00
2019-01-26T06:12:14.007Z,0.00
2019-01-26T06:13:13.962Z,0.00
2019-01-26T06:14:13.929Z,0.00
2019-01-26T06:15:13.928Z,0.00
2019-01-26T06:16:13.878Z,0.00
2019-01-26T06:17:13.844Z,0.00
2019-01-26T06:18:13.817Z,0.00
2019-01-26T06:19:13.777Z,0.00
2019-01-26T06:20:13.713Z,0.00
2019-01-26T06:21:13.664Z,0.00
2019-01-26T06:22:13.666Z,0.00
2019-01-26T06:23:13.617Z,0.00
2019-01-26T06:24:13.563Z,0.00
2019-01-26T06:25:13.537Z,0.00
2019-01-26T06:26:13.508Z,0.00
2019-01-26T06:27:13.465Z,0.00
2019-01-26T06:28:13.409Z,0.00
2019-01-26T06:29:13.408Z,0.00
2019-01-26T06:30:13.354Z,0.00
2019-01-26T06:31:13.317Z,0.00
2019-01-26T06:32:13.268Z,0.00
2019-01-26T06:33:13.225Z,0.00
2019-01-26T06:34:13.200Z,0.00
2019-01-26T06:35:13.172Z,0.00
2019-01-26T06:36:13.185Z,0.00
2019-01-26T06:37:13.093Z,0.00
2019-01-26T06:38:13.083Z,0.00
2019-01-26T06:39:13.009Z,0.00
2019-01-26T06:40:13.002Z,0.00
2019-01-26T06:41:12.959Z,0.00
2019-01-26T06:42:12.937Z,0.00
2019-01-26T06:43:12.875Z,0.00
2019-01-26T06:44:12.850Z,0.00
2019-01-26T06:45:12.815Z,0.00
2019-01-26T06:46:12.773Z,0.00
2019-01-26T06:47:12.727Z,0.00
2019-01-26T06:48:12.687Z,0.00
2019-01-26T06:49:12.648Z,0.00
2019-01-26T06:50:12.628Z,0.00
2019-01-26T06:51:12.604Z,0.00
2019-01-26T06:52:12.559Z,0.00
2019-01-26T06:53:12.540Z,0.00
2019-01-26T06:54:12.479Z,0.00
2019-01-26T06:55:12.440Z,0.00
2019-01-26T06:56:12.391Z,0.00
2019-01-26T06:57:12.356Z,0.00
2019-01-26T06:58:12.339Z,0.00
2019-01-26T06:59:12.279Z,0.00
2019-01-26T07:00:12.265Z,0.00
2019-01-26T07:01:12.219Z,0.00
2019-01-26T07:02:12.223Z,4.00
2019-01-26T07:03:12.136Z,4.00
2019-01-26T07:04:12.111Z,0.00
2019-01-26T07:05:12.086Z,4.00
2019-01-26T07:06:12.044Z,4.00
2019-01-26T07:07:11.994Z,4.00
2019-01-26T07:08:11.959Z,4.00
2019-01-26T07:09:11.914Z,4.00
2019-01-26T07:10:11.889Z,8.00
2019-01-26T07:11:11.852Z,8.00
2019-01-26T07:12:11.806Z,12.00
2019-01-26T07:13:11.790Z,8.00
2019-01-26T07:14:11.747Z,12.00
2019-01-26T07:15:11.709Z,12.00
2019-01-26T07:16:11.673Z,16.00
2019-01-26T07:17:11.634Z,16.00
2019-01-26T07:18:11.611Z,12.00
2019-01-26T07:19:11.584Z,16.00
2019-01-26T07:20:11.520Z,20.00
2019-01-26T07:21:11.491Z,24.00
2019-01-26T07:22:11.444Z,24.00
2019-01-26T07:23:11.410Z,28.00
2019-01-26T07:24:11.412Z,32.00
2019-01-26T07:25:11.356Z,40.00
2019-01-26T07:26:11.317Z,40.00
2019-01-26T07:27:11.273Z,40.00
2019-01-26T07:28:11.254Z,48.00
2019-01-26T07:29:11.201Z,52.00
2019-01-26T07:30:11.161Z,52.00
2019-01-26T07:31:11.137Z,56.00
2019-01-26T07:32:11.107Z,56.00
2019-01-26T07:33:11.054Z,64.00
2019-01-26T07:34:11.008Z,68.00
2019-01-26T07:35:10.980Z,68.00
2019-01-26T07:36:10.960Z,80.00
2019-01-26T07:37:10.900Z,80.00
2019-01-26T07:38:13.616Z,88.00
2019-01-26T07:39:10.826Z,92.00
2019-01-26T07:40:10.821Z,96.00
2019-01-26T07:41:10.751Z,112.00
2019-01-26T07:42:10.712Z,112.00
2019-01-26T07:43:10.680Z,128.00
2019-01-26T07:44:10.656Z,136.00
2019-01-26T07:45:10.610Z,140.00
2019-01-26T07:46:10.566Z,156.00
2019-01-26T07:47:10.531Z,176.00
2019-01-26T07:48:16.720Z,196.00
2019-01-26T07:49:10.465Z,180.00
2019-01-26T07:50:10.426Z,184.00
2019-01-26T07:51:10.395Z,200.00
2019-01-26T07:52:10.352Z,220.00
2019-01-26T07:53:10.313Z,248.00
2019-01-26T07:54:10.281Z,268.00
2019-01-26T07:55:10.242Z,284.00
2019-01-26T07:56:10.212Z,356.00
2019-01-26T07:57:10.177Z,320.00
2019-01-26T07:58:10.147Z,376.00
2019-01-26T07:59:10.092Z,364.00
2019-01-26T08:00:10.063Z,340.00
2019-01-26T08:01:10.031Z,332.00
2019-01-26T08:02:09.986Z,304.00
2019-01-26T08:03:09.962Z,288.00
2019-01-26T08:04:09.921Z,300.00
2019-01-26T08:05:09.886Z,300.00
2019-01-26T08:06:09.856Z,300.00
2019-01-26T08:07:09.816Z,296.00
2019-01-26T08:08:09.776Z,300.00
2019-01-26T08:09:09.742Z,304.00
2019-01-26T08:10:09.697Z,332.00
2019-01-26T08:11:09.668Z,360.00
2019-01-26T08:12:09.623Z,328.00
2019-01-26T08:13:09.623Z,320.00
2019-01-26T08:14:09.565Z,292.00
2019-01-26T08:15:09.523Z,284.00
2019-01-26T08:16:09.479Z,284.00
2019-01-26T08:17:09.462Z,260.00
2019-01-26T08:18:09.416Z,252.00
2019-01-26T08:19:09.372Z,236.00
2019-01-26T08:20:09.334Z,244.00
2019-01-26T08:21:09.313Z,268.00
2019-01-26T08:22:09.263Z,264.00
2019-01-26T08:23:09.225Z,268.00
2019-01-26T08:24:09.194Z,280.00
2019-01-26T08:25:09.168Z,304.00
2019-01-26T08:26:09.123Z,308.00
2019-01-26T08:27:09.093Z,296.00
2019-01-26T08:28:09.052Z,312.00
2019-01-26T08:29:09.019Z,324.00
2019-01-26T08:30:08.979Z,316.00
2019-01-26T08:31:08.944Z,344.00
2019-01-26T08:32:08.905Z,332.00
2019-01-26T08:33:08.874Z,320.00
2019-01-26T08:34:08.834Z,312.00
2019-01-26T08:35:08.797Z,312.00
2019-01-26T08:36:08.789Z,324.00
2019-01-26T08:37:08.718Z,328.00
2019-01-26T08:38:08.690Z,360.00
2019-01-26T08:39:08.658Z,392.00
2019-01-26T08:40:08.623Z,376.00
2019-01-26T08:41:08.584Z,396.00
2019-01-26T08:42:08.552Z,404.00
2019-01-26T08:43:08.510Z,472.00
2019-01-26T08:44:08.469Z,504.00
2019-01-26T08:45:08.439Z,540.00
2019-01-26T08:46:08.389Z,564.00
2019-01-26T08:47:08.409Z,660.00
2019-01-26T08:48:08.334Z,580.00
2019-01-26T08:49:08.878Z,596.00
2019-01-26T08:50:08.283Z,596.00
2019-01-26T08:51:08.230Z,696.00
2019-01-26T08:52:08.195Z,704.00
2019-01-26T08:53:08.160Z,800.00
2019-01-26T08:54:08.128Z,972.00
2019-01-26T08:55:08.083Z,984.00
2019-01-26T08:56:08.040Z,1040.00
2019-01-26T08:57:08.006Z,852.00
2019-01-26T08:58:07.974Z,828.00
2019-01-26T08:59:07.954Z,1228.00
2019-01-26T09:00:07.903Z,1064.00
2019-01-26T09:01:07.880Z,932.00
2019-01-26T09:02:07.838Z,984.00
2019-01-26T09:03:07.783Z,1244.00
2019-01-26T09:04:07.764Z,1704.00
2019-01-26T09:05:07.728Z,1688.00
2019-01-26T09:06:07.694Z,1960.00
2019-01-26T09:07:07.686Z,1648.00
2019-01-26T09:08:07.592Z,1952.00
2019-01-26T09:09:07.565Z,1480.00
2019-01-26T09:10:07.560Z,1780.00
2019-01-26T09:11:07.496Z,1536.00
2019-01-26T09:12:07.494Z,1624.00
2019-01-26T09:13:07.425Z,2272.00
2019-01-26T09:14:07.379Z,3212.00
2019-01-26T09:15:07.381Z,3100.00
2019-01-26T09:16:07.359Z,3348.00
2019-01-26T09:17:07.277Z,3748.00
2019-01-26T09:18:07.255Z,3664.00
2019-01-26T09:19:07.206Z,3692.00
2019-01-26T09:20:07.170Z,3896.00
2019-01-26T09:21:07.142Z,4084.00
2019-01-26T09:22:07.105Z,4000.00
2019-01-26T09:23:07.081Z,3836.00
2019-01-26T09:24:07.021Z,3648.00
2019-01-26T09:25:06.995Z,3108.00
2019-01-26T09:26:06.977Z,3272.00
2019-01-26T09:27:06.920Z,3604.00
2019-01-26T09:28:06.877Z,3744.00
2019-01-26T09:29:06.851Z,3588.00
2019-01-26T09:30:06.822Z,3456.00
2019-01-26T09:31:06.782Z,3996.00
2019-01-26T09:32:06.736Z,4356.00
2019-01-26T09:33:06.727Z,4620.00
2019-01-26T09:34:06.661Z,4756.00
2019-01-26T09:35:06.620Z,5180.00
2019-01-26T09:36:06.594Z,5976.00
2019-01-26T09:37:06.582Z,6624.00
2019-01-26T09:38:06.521Z,6984.00
2019-01-26T09:39:06.500Z,7048.00
2019-01-26T09:40:06.462Z,7508.00
2019-01-26T09:41:06.415Z,7612.00
2019-01-26T09:42:06.378Z,7672.00
2019-01-26T09:43:06.331Z,8072.00
2019-01-26T09:44:06.306Z,8464.00
2019-01-26T09:45:06.293Z,8892.00
2019-01-26T09:46:06.239Z,8328.00
2019-01-26T09:47:06.198Z,6632.00
2019-01-26T09:48:06.193Z,6248.00
2019-01-26T09:49:06.145Z,4456.00
2019-01-26T09:50:06.090Z,6352.00
2019-01-26T09:51:06.063Z,6848.00
2019-01-26T09:52:06.022Z,6500.00
2019-01-26T09:53:05.990Z,6912.00
2019-01-26T09:54:05.957Z,6132.00
2019-01-26T09:55:05.913Z,6452.00
2019-01-26T09:56:05.878Z,4008.00
2019-01-26T09:57:05.848Z,4904.00
2019-01-26T09:58:05.831Z,4060.00
2019-01-26T09:59:05.770Z,3404.00
2019-01-26T10:00:05.736Z,2812.00
2019-01-26T10:01:05.704Z,2752.00
2019-01-26T10:02:05.673Z,2700.00
2019-01-26T10:03:05.668Z,2412.00
2019-01-26T10:04:05.591Z,2308.00
2019-01-26T10:05:05.561Z,2176.00
2019-01-26T10:06:05.559Z,2944.00
2019-01-26T10:07:05.491Z,2308.00
2019-01-26T10:08:05.459Z,2384.00
2019-01-26T10:09:05.429Z,2444.00
2019-01-26T10:10:05.534Z,3424.00
2019-01-26T10:11:05.379Z,2496.00
2019-01-26T10:12:05.314Z,2384.00
2019-01-26T10:13:05.281Z,3352.00
2019-01-26T10:14:05.276Z,3352.00
2019-01-26T10:15:05.232Z,2452.00
2019-01-26T10:16:05.180Z,2192.00
2019-01-26T10:17:05.154Z,2700.00
2019-01-26T10:18:05.109Z,3120.00
2019-01-26T10:19:05.077Z,2280.00
2019-01-26T10:20:05.080Z,1848.00
2019-01-26T10:21:05.013Z,2216.00
2019-01-26T10:22:04.989Z,1608.00
2019-01-26T10:23:04.933Z,1824.00
2019-01-26T10:24:04.902Z,1624.00
2019-01-26T10:25:04.859Z,1584.00
2019-01-26T10:26:04.827Z,1788.00
2019-01-26T10:27:04.794Z,1876.00
2019-01-26T10:28:04.753Z,1960.00
2019-01-26T10:29:04.710Z,1488.00
2019-01-26T10:30:04.682Z,2016.00
2019-01-26T10:31:04.650Z,1856.00
2019-01-26T10:32:04.609Z,2140.00
2019-01-26T10:33:04.584Z,1884.00
2019-01-26T10:34:04.574Z,2452.00
2019-01-26T10:35:04.500Z,2440.00
2019-01-26T10:36:04.469Z,3024.00
2019-01-26T10:37:04.443Z,2436.00
2019-01-26T10:38:04.417Z,2200.00
2019-01-26T10:39:04.378Z,2716.00
2019-01-26T10:40:04.329Z,2216.00
2019-01-26T10:41:04.294Z,2736.00
2019-01-26T10:42:04.245Z,3132.00
2019-01-26T10:43:04.229Z,3836.00
2019-01-26T10:44:04.180Z,2900.00
2019-01-26T10:45:04.191Z,4656.00
2019-01-26T10:46:04.115Z,4028.00
2019-01-26T10:47:04.094Z,4916.00
2019-01-26T10:48:04.070Z,6488.00
2019-01-26T10:49:04.018Z,5604.00
2019-01-26T10:50:03.972Z,10136.00
2019-01-26T10:51:03.965Z,9988.00
2019-01-26T10:52:03.910Z,5696.00
2019-01-26T10:53:03.901Z,4304.00
2019-01-26T10:54:03.870Z,4284.00
2019-01-26T10:55:03.801Z,2228.00
2019-01-26T10:56:03.763Z,3356.00
2019-01-26T10:57:03.729Z,2072.00
2019-01-26T10:58:03.702Z,1616.00
2019-01-26T10:59:03.661Z,2072.00
2019-01-26T11:00:03.631Z,1724.00
2019-01-26T11:01:03.619Z,2992.00
2019-01-26T11:02:03.557Z,3308.00
2019-01-26T11:03:03.516Z,3752.00
2019-01-26T11:04:03.497Z,3436.00
2019-01-26T11:05:03.445Z,2800.00
2019-01-26T11:06:03.406Z,2392.00
2019-01-26T11:07:03.389Z,2160.00
2019-01-26T11:08:03.365Z,3340.00
2019-01-26T11:09:03.327Z,2696.00
2019-01-26T11:10:03.267Z,3624.00
2019-01-26T11:11:03.259Z,3676.00
2019-01-26T11:12:03.215Z,8352.00
2019-01-26T11:13:03.195Z,4880.00
2019-01-26T11:14:03.135Z,7128.00
2019-01-26T11:15:03.107Z,7004.00
2019-01-26T11:16:03.097Z,6876.00
2019-01-26T11:17:03.030Z,19456.00
2019-01-26T11:18:03.020Z,4120.00
2019-01-26T11:19:07.841Z,3188.00
2019-01-26T11:20:02.922Z,5520.00
2019-01-26T11:21:02.905Z,14128.00
2019-01-26T11:22:02.842Z,17824.00
2019-01-26T11:23:02.812Z,13544.00
2019-01-26T11:24:02.783Z,8836.00
2019-01-26T11:25:02.766Z,8280.00
2019-01-26T11:26:02.716Z,11880.00
2019-01-26T11:27:02.697Z,16460.00
2019-01-26T11:28:02.646Z,16220.00
2019-01-26T11:29:02.615Z,10180.00
2019-01-26T11:30:02.586Z,6872.00
2019-01-26T11:31:02.573Z,21600.00
2019-01-26T11:32:02.528Z,17472.00
2019-01-26T11:33:02.470Z,6296.00
2019-01-26T11:34:02.442Z,9084.00
2019-01-26T11:35:02.411Z,8280.00
2019-01-26T11:36:02.371Z,8116.00
2019-01-26T11:37:02.338Z,7108.00
2019-01-26T11:38:02.312Z,4756.00
2019-01-26T11:39:02.273Z,5980.00
2019-01-26T11:40:02.261Z,5064.00
2019-01-26T11:41:02.197Z,4308.00
2019-01-26T11:42:02.186Z,4888.00
2019-01-26T11:43:02.173Z,4296.00
2019-01-26T11:44:02.096Z,3096.00
2019-01-26T11:45:02.082Z,2996.00
2019-01-26T11:46:02.053Z,2656.00
2019-01-26T11:47:01.994Z,4012.00
2019-01-26T11:48:01.958Z,5176.00
2019-01-26T11:49:01.962Z,4644.00
2019-01-26T11:50:01.912Z,3704.00
2019-01-26T11:51:01.858Z,2788.00
2019-01-26T11:52:01.826Z,2304.00
2019-01-26T11:53:01.822Z,2248.00
2019-01-26T11:54:01.791Z,1280.00
2019-01-26T11:55:01.726Z,1836.00
2019-01-26T11:56:01.682Z,2688.00
2019-01-26T11:57:01.658Z,5944.00
2019-01-26T11:58:01.617Z,5244.00
2019-01-26T11:59:01.579Z,6632.00
2019-01-26T12:00:01.569Z,11440.00
2019-01-26T12:01:01.519Z,8240.00
2019-01-26T12:02:01.474Z,5700.00
2019-01-26T12:03:01.449Z,3016.00
2019-01-26T12:04:01.408Z,4804.00
2019-01-26T12:05:01.476Z,4072.00
2019-01-26T12:06:01.342Z,5680.00
2019-01-26T12:07:01.323Z,2220.00
2019-01-26T12:08:01.273Z,1244.00
2019-01-26T12:09:01.239Z,1068.00
2019-01-26T12:10:01.215Z,1040.00
2019-01-26T12:11:01.167Z,1200.00
2019-01-26T12:12:01.133Z,1468.00
2019-01-26T12:13:01.090Z,1244.00
2019-01-26T12:14:01.095Z,1360.00
2019-01-26T12:15:01.034Z,1068.00
2019-01-26T12:16:00.989Z,852.00
2019-01-26T12:17:00.960Z,1040.00
2019-01-26T12:18:00.914Z,948.00
2019-01-26T12:19:00.907Z,860.00
2019-01-26T12:20:00.887Z,1036.00
2019-01-26T12:21:00.834Z,1076.00
2019-01-26T12:22:00.788Z,1244.00
2019-01-26T12:23:00.745Z,1096.00
2019-01-26T12:24:00.718Z,1008.00
2019-01-26T12:25:00.690Z,992.00
2019-01-26T12:26:00.654Z,900.00
2019-01-26T12:27:00.634Z,856.00
2019-01-26T12:28:00.590Z,856.00
2019-01-26T12:29:00.550Z,888.00
2019-01-26T12:30:00.543Z,1100.00
2019-01-26T12:31:00.470Z,1212.00
2019-01-26T12:32:00.444Z,1128.00
2019-01-26T12:33:00.400Z,1392.00
2019-01-26T12:34:00.398Z,1500.00
2019-01-26T12:35:00.325Z,1436.00
2019-01-26T12:36:00.330Z,1520.00
2019-01-26T12:37:00.288Z,1364.00
2019-01-26T12:38:00.237Z,1648.00
2019-01-26T12:39:00.194Z,1468.00
2019-01-26T12:40:00.183Z,1328.00
2019-01-26T12:41:00.137Z,1004.00
2019-01-26T12:42:00.081Z,804.00
2019-01-26T12:43:00.049Z,868.00
2019-01-26T12:44:00.016Z,912.00
2019-01-26T12:44:59.975Z,784.00
2019-01-26T12:45:59.984Z,788.00
2019-01-26T12:46:59.934Z,904.00
2019-01-26T12:47:59.876Z,916.00
2019-01-26T12:48:59.844Z,916.00